Time;durP1;ratioP1;P1;durP2;ratioP2;P2;SDS_P1;SDS_P2;PMS_P1;PMS_P2;Temp;Humidity;BMP_temperature;BMP_pressure;BME280_temperature;BME280_humidity;BME280_pressure;Samples;Min_cycle;Max_cycle;Signal;HPM_P1;HPM_P2
2022/06/18 00:01:35;;;;;;;3.23;1.57;;;25.10;29.90;;;;;;4993629;28;20413;-46
2022/06/18 00:04:05;;;;;;;3.20;1.57;;;25.00;29.90;;;;;;4993843;28;20528;-47
2022/06/18 00:06:42;;;;;;;2.90;1.80;;;25.00;30.30;;;;;;4993349;28;20410;-47
2022/06/18 00:09:11;;;;;;;3.03;1.83;;;25.00;30.10;;;;;;4993610;28;20517;-46
2022/06/18 00:14:21;;;;;;;2.40;1.67;;;25.00;30.10;;;;;;4993758;28;20418;-46
2022/06/18 00:16:47;;;;;;;2.23;1.30;;;24.90;30.30;;;;;;4993288;28;20419;-45
2022/06/18 00:19:13;;;;;;;2.73;1.70;;;24.90;30.40;;;;;;4993299;28;20430;-46
2022/06/18 00:21:38;;;;;;;3.47;1.47;;;24.80;30.40;;;;;;4993344;28;20187;-46
2022/06/18 00:24:20;;;;;;;2.00;1.23;;;24.80;30.90;;;;;;4993326;28;20513;-46
2022/06/18 00:26:46;;;;;;;2.23;1.57;;;24.80;30.60;;;;;;4993255;28;20524;-47
2022/06/18 00:29:15;;;;;;;2.97;2.07;;;24.70;30.50;;;;;;4993085;28;21053;-46
2022/06/18 00:31:41;;;;;;;3.77;1.90;;;24.70;30.70;;;;;;4993246;28;20406;-46
2022/06/18 00:34:07;;;;;;;2.17;1.53;;;24.60;30.70;;;;;;4993332;28;20414;-46
2022/06/18 00:36:37;;;;;;;6.80;1.70;;;24.60;30.60;;;;;;4992689;28;20524;-46
2022/06/18 00:39:04;;;;;;;3.20;1.60;;;24.50;30.70;;;;;;4993203;28;20450;-47
2022/06/18 00:41:33;;;;;;;3.27;1.73;;;24.50;30.90;;;;;;4992966;28;20418;-46
2022/06/18 00:44:07;;;;;;;3.67;1.90;;;24.50;31.30;;;;;;4992853;28;20458;-46
2022/06/18 00:47:03;;;;;;;3.40;1.83;;;24.40;31.50;;;;;;4992787;28;20417;-46
2022/06/18 00:49:32;;;;;;;3.90;1.80;;;24.40;32.00;;;;;;4992943;28;20449;-47
2022/06/18 00:52:10;;;;;;;2.90;1.73;;;24.30;32.10;;;;;;4992777;28;20414;-46
2022/06/18 00:54:39;;;;;;;2.60;1.83;;;24.20;32.30;;;;;;4993007;28;20434;-46
2022/06/18 00:57:44;;;;;;;5.50;1.80;;;24.20;32.60;;;;;;4992795;28;20414;-47
2022/06/18 01:00:17;;;;;;;2.87;1.70;;;24.10;33.20;;;;;;4992727;28;20929;-46
2022/06/18 01:02:46;;;;;;;3.10;1.73;;;24.00;33.40;;;;;;4992681;28;20899;-46
2022/06/18 01:05:36;;;;;;;2.20;1.90;;;23.90;33.30;;;;;;4992589;28;20485;-46
2022/06/18 01:08:11;;;;;;;2.80;1.70;;;23.80;33.60;;;;;;4992562;28;20430;-47
2022/06/18 01:10:41;;;;;;;3.97;1.63;;;23.70;33.40;;;;;;4992917;28;20400;-46
2022/06/18 01:13:11;;;;;;;2.90;1.83;;;23.60;33.70;;;;;;4992868;28;20421;-46
2022/06/18 01:15:39;;;;;;;2.87;1.80;;;23.60;34.00;;;;;;4992470;28;20469;-45
2022/06/18 01:18:06;;;;;;;1.93;1.50;;;23.50;33.70;;;;;;4992800;28;20430;-46
2022/06/18 01:21:06;;;;;;;2.87;1.47;;;23.50;33.70;;;;;;4992467;28;20470;-45
2022/06/18 01:23:48;;;;;;;2.83;1.77;;;23.50;34.00;;;;;;4938658;28;20465;-46
2022/06/18 01:26:14;;;;;;;2.73;1.90;;;23.40;34.20;;;;;;4992400;28;20505;-45
2022/06/18 01:28:40;;;;;;;2.53;1.87;;;23.40;34.40;;;;;;4992325;28;20953;-46
2022/06/18 01:31:07;;;;;;;3.07;2.00;;;23.30;34.10;;;;;;4992631;28;20410;-46
2022/06/18 01:33:34;;;;;;;3.10;1.80;;;23.30;34.30;;;;;;4992386;28;20801;-46
2022/06/18 01:36:03;;;;;;;2.40;1.87;;;23.20;34.60;;;;;;4992413;28;20460;-46
2022/06/18 01:38:29;;;;;;;2.60;2.20;;;23.20;34.70;;;;;;4992470;28;20434;-46
2022/06/18 01:43:54;;;;;;;4.37;2.20;;;23.10;35.50;;;;;;4994130;28;20444;-46
2022/06/18 01:46:20;;;;;;;2.80;1.57;;;23.00;35.20;;;;;;4996031;28;20406;-45
2022/06/18 01:48:49;;;;;;;2.03;1.40;;;22.90;35.30;;;;;;4995985;28;20628;-45
2022/06/18 01:51:23;;;;;;;3.73;2.07;;;22.90;35.50;;;;;;4996010;28;20639;-46
2022/06/18 01:53:58;;;;;;;4.07;2.00;;;22.80;35.60;;;;;;4995998;28;20497;-46
2022/06/18 01:56:30;;;;;;;2.60;1.40;;;22.80;36.50;;;;;;4995814;28;20940;-46
2022/06/18 01:59:22;;;;;;;2.40;1.80;;;22.70;36.30;;;;;;4995852;28;20450;-45
2022/06/18 02:01:49;;;;;;;2.70;1.60;;;22.60;35.90;;;;;;4995322;28;20473;-45
2022/06/18 02:04:18;;;;;;;2.50;1.60;;;22.50;36.00;;;;;;4995723;28;20466;-46
2022/06/18 02:06:45;;;;;;;2.53;1.70;;;22.50;35.90;;;;;;4995884;28;20415;-46
2022/06/18 02:09:27;;;;;;;4.80;2.20;;;22.40;35.90;;;;;;4995884;28;20429;-46
2022/06/18 02:11:55;;;;;;;2.27;1.70;;;22.40;35.90;;;;;;4995777;28;20809;-45
2022/06/18 02:14:25;;;;;;;2.20;1.57;;;22.30;36.10;;;;;;4995982;28;20826;-46
2022/06/18 02:16:53;;;;;;;2.30;1.63;;;22.30;36.30;;;;;;4995659;28;20795;-46
2022/06/18 02:19:20;;;;;;;2.60;1.73;;;22.20;36.50;;;;;;4995503;28;20941;-46
2022/06/18 02:21:49;;;;;;;2.60;1.70;;;22.20;36.10;;;;;;4995669;28;20452;-46
2022/06/18 02:24:15;;;;;;;2.97;2.03;;;22.10;36.50;;;;;;4995383;28;20861;-46
2022/06/18 02:26:45;;;;;;;3.00;2.00;;;22.10;36.50;;;;;;4995447;28;20414;-46
2022/06/18 02:29:21;;;;;;;3.03;2.10;;;22.00;36.40;;;;;;4995508;28;20438;-46
2022/06/18 02:31:47;;;;;;;3.50;1.80;;;22.00;36.90;;;;;;4995289;28;20414;-46
2022/06/18 02:34:19;;;;;;;2.47;1.87;;;22.00;36.90;;;;;;4995426;28;20430;-46
2022/06/18 02:36:45;;;;;;;2.40;2.10;;;21.90;36.90;;;;;;4995041;28;20875;-46
2022/06/18 02:39:26;;;;;;;1.97;1.53;;;21.90;36.90;;;;;;4995102;28;20509;-45
2022/06/18 02:42:10;;;;;;;2.93;1.90;;;21.90;37.30;;;;;;4995078;28;20425;-46
2022/06/18 02:44:39;;;;;;;3.43;1.97;;;21.80;37.30;;;;;;4995086;28;20861;-46
2022/06/18 02:47:06;;;;;;;4.50;2.23;;;21.80;37.30;;;;;;4994921;28;20407;-45
2022/06/18 02:49:37;;;;;;;3.30;2.00;;;21.80;37.30;;;;;;4994902;28;20930;-46
2022/06/18 02:52:05;;;;;;;3.93;1.80;;;21.70;37.40;;;;;;4995229;28;20392;-46
2022/06/18 02:54:31;;;;;;;3.07;1.90;;;21.70;38.10;;;;;;4993910;28;21103;-46
2022/06/18 02:57:00;;;;;;;2.60;1.93;;;21.70;37.60;;;;;;4994394;28;20779;-46
2022/06/18 02:59:27;;;;;;;4.17;1.60;;;21.60;37.70;;;;;;4994683;28;20512;-46
2022/06/18 03:01:53;;;;;;;4.20;1.93;;;21.60;37.50;;;;;;4994728;28;20881;-46
2022/06/18 03:04:19;;;;;;;2.83;1.87;;;21.60;37.60;;;;;;4994748;28;20457;-46
2022/06/18 03:06:45;;;;;;;3.10;1.47;;;21.60;37.80;;;;;;4994430;28;20411;-46
2022/06/18 03:09:11;;;;;;;3.13;1.90;;;21.60;37.70;;;;;;4994610;28;20195;-46
2022/06/18 03:14:21;;;;;;;3.37;2.27;;;21.50;38.00;;;;;;4994896;28;20489;-47
2022/06/18 03:16:47;;;;;;;3.00;2.00;;;21.50;37.80;;;;;;4994444;28;20446;-46
2022/06/18 03:19:43;;;;;;;2.20;1.70;;;21.40;37.70;;;;;;4994404;28;20462;-45
2022/06/18 03:22:16;;;;;;;3.67;2.20;;;21.50;38.00;;;;;;4994695;28;20490;-46
2022/06/18 03:24:43;;;;;;;2.67;2.30;;;21.50;38.00;;;;;;4994386;28;20462;-46
2022/06/18 03:27:10;;;;;;;3.30;2.10;;;21.50;37.90;;;;;;4994199;28;20819;-46
2022/06/18 03:29:36;;;;;;;3.37;2.00;;;21.50;38.20;;;;;;4994031;28;20442;-46
2022/06/18 03:32:03;;;;;;;3.20;1.90;;;21.50;38.20;;;;;;4994441;28;20501;-46
2022/06/18 03:34:29;;;;;;;6.50;1.70;;;21.50;38.10;;;;;;4994087;28;20977;-46
2022/06/18 03:36:56;;;;;;;2.37;1.70;;;21.40;38.00;;;;;;4993921;28;20534;-46
2022/06/18 03:39:22;;;;;;;2.00;1.47;;;21.40;38.20;;;;;;4994012;28;20675;-45
2022/06/18 03:41:48;;;;;;;3.07;2.13;;;21.40;38.20;;;;;;4993990;28;20525;-46
2022/06/18 03:44:14;;;;;;;2.77;2.07;;;21.40;38.20;;;;;;4993796;28;20593;-45
2022/06/18 03:46:43;;;;;;;3.13;2.23;;;21.40;38.40;;;;;;4993652;28;20179;-45
2022/06/18 03:49:17;;;;;;;3.27;2.10;;;21.50;38.60;;;;;;4994051;28;20199;-45
2022/06/18 03:51:42;;;;;;;2.40;1.73;;;21.50;38.60;;;;;;4993975;28;20412;-46
2022/06/18 03:54:08;;;;;;;2.67;2.10;;;21.50;38.70;;;;;;4993855;28;20485;-44
2022/06/18 03:56:34;;;;;;;2.40;1.90;;;21.50;38.60;;;;;;4993739;28;20182;-45
2022/06/18 03:59:01;;;;;;;2.53;2.03;;;21.60;38.60;;;;;;4993458;28;20215;-45
2022/06/18 04:01:29;;;;;;;2.47;1.47;;;21.60;38.60;;;;;;4993764;28;20513;-45
2022/06/18 04:03:55;;;;;;;2.47;1.90;;;21.70;38.30;;;;;;4993575;28;20862;-43
2022/06/18 04:06:21;;;;;;;4.00;2.07;;;21.70;38.40;;;;;;4992955;28;20419;-44
2022/06/18 04:08:47;;;;;;;3.37;2.23;;;21.80;38.50;;;;;;4993382;28;20493;-45
2022/06/18 04:11:13;;;;;;;2.27;1.63;;;21.80;38.60;;;;;;4993670;28;20180;-46
2022/06/18 04:13:40;;;;;;;5.10;2.10;;;21.90;38.40;;;;;;4993643;28;20774;-46
2022/06/18 04:16:06;;;;;;;2.57;1.70;;;22.00;38.40;;;;;;4993394;28;20421;-47
2022/06/18 04:18:33;;;;;;;2.30;1.97;;;22.10;38.60;;;;;;4993451;28;20489;-46
2022/06/18 04:20:59;;;;;;;2.43;1.97;;;22.10;38.20;;;;;;4993399;28;20414;-46
2022/06/18 04:23:26;;;;;;;2.50;1.60;;;22.20;38.50;;;;;;4993178;28;20422;-47
2022/06/18 04:25:51;;;;;;;2.30;1.50;;;22.30;38.10;;;;;;4992940;28;20468;-46
2022/06/18 04:28:18;;;;;;;2.70;1.60;;;22.40;38.20;;;;;;4993151;28;20528;-46
2022/06/18 04:30:44;;;;;;;2.60;1.70;;;22.40;37.70;;;;;;4993115;28;20661;-47
2022/06/18 04:33:11;;;;;;;2.10;1.87;;;22.50;37.90;;;;;;4993364;28;20770;-46
2022/06/18 04:35:37;;;;;;;2.00;1.27;;;22.50;37.40;;;;;;4992980;28;20423;-45
2022/06/18 04:38:03;;;;;;;2.70;1.50;;;22.60;37.60;;;;;;4993201;28;20446;-46
2022/06/18 04:40:32;;;;;;;2.97;1.67;;;22.70;37.30;;;;;;4992877;28;20414;-45
2022/06/18 04:43:06;;;;;;;3.50;1.90;;;22.80;37.30;;;;;;4992858;28;20425;-47
2022/06/18 04:45:34;;;;;;;2.10;1.33;;;22.90;37.10;;;;;;4992696;28;20557;-46
2022/06/18 04:48:00;;;;;;;5.83;2.33;;;23.00;36.90;;;;;;4993074;28;20427;-47
2022/06/18 04:50:33;;;;;;;2.40;1.70;;;23.20;36.80;;;;;;4992835;28;20450;-47
2022/06/18 04:52:59;;;;;;;2.10;1.40;;;23.30;36.60;;;;;;4992793;28;20950;-46
2022/06/18 04:55:25;;;;;;;3.00;1.73;;;23.40;36.40;;;;;;4992681;28;20506;-45
2022/06/18 04:57:51;;;;;;;2.83;1.80;;;23.40;36.00;;;;;;4992661;28;20231;-46
2022/06/18 05:00:18;;;;;;;2.90;1.90;;;23.50;35.90;;;;;;4992932;28;20430;-45
2022/06/18 05:02:43;;;;;;;2.93;2.07;;;23.60;35.90;;;;;;4992721;28;20222;-46
2022/06/18 05:05:28;;;;;;;2.50;1.63;;;23.70;35.90;;;;;;4992971;28;20454;-45
2022/06/18 05:07:54;;;;;;;3.10;2.00;;;23.80;35.70;;;;;;4992659;28;20201;-45
2022/06/18 05:10:20;;;;;;;3.00;1.80;;;23.90;35.60;;;;;;4992894;28;20811;-45
2022/06/18 05:12:46;;;;;;;2.80;1.53;;;23.90;35.30;;;;;;4992744;28;20771;-45
2022/06/18 05:15:12;;;;;;;2.30;1.50;;;24.00;34.70;;;;;;4992758;28;20917;-46
2022/06/18 05:17:43;;;;;;;4.03;1.90;;;24.00;34.50;;;;;;4992364;28;20413;-47
2022/06/18 05:20:15;;;;;;;2.70;1.70;;;24.00;34.10;;;;;;4996587;28;20414;-47
2022/06/18 05:22:42;;;;;;;2.80;2.30;;;24.10;34.30;;;;;;4996519;28;20580;-46
2022/06/18 05:25:10;;;;;;;2.20;1.30;;;24.20;34.20;;;;;;4996648;28;20457;-45
2022/06/18 05:27:36;;;;;;;2.47;1.77;;;24.20;33.80;;;;;;4996538;28;20413;-45
2022/06/18 05:30:04;;;;;;;2.70;1.57;;;24.30;33.90;;;;;;4996661;28;20429;-47
2022/06/18 05:32:30;;;;;;;1.80;1.13;;;24.40;33.70;;;;;;4996346;28;20406;-46
2022/06/18 05:34:56;;;;;;;2.60;1.50;;;24.50;33.90;;;;;;4996291;28;20406;-46
2022/06/18 05:37:25;;;;;;;2.40;1.70;;;24.60;33.50;;;;;;4996093;28;20221;-45
2022/06/18 05:39:50;;;;;;;2.50;1.50;;;24.70;33.60;;;;;;4996213;28;20171;-46
2022/06/18 05:42:17;;;;;;;2.83;1.80;;;24.80;33.60;;;;;;4996285;28;20406;-45
2022/06/18 05:44:43;;;;;;;2.83;1.43;;;24.90;32.80;;;;;;4996100;28;20544;-45
2022/06/18 05:47:19;;;;;;;1.90;1.43;;;25.00;33.20;;;;;;4995795;28;20758;-46
2022/06/18 05:49:45;;;;;;;2.43;1.63;;;25.10;33.10;;;;;;4996311;28;20422;-46
2022/06/18 05:52:11;;;;;;;2.40;1.70;;;25.30;33.10;;;;;;4996180;28;20556;-46
2022/06/18 05:54:37;;;;;;;3.60;1.43;;;25.40;32.50;;;;;;4996118;28;20171;-46
2022/06/18 05:57:04;;;;;;;5.10;1.70;;;25.50;32.30;;;;;;4996052;28;20774;-46
2022/06/18 05:59:33;;;;;;;2.20;1.40;;;25.60;31.70;;;;;;4995695;28;20454;-45
2022/06/18 06:01:58;;;;;;;2.40;1.27;;;25.70;31.90;;;;;;4995854;28;20403;-45
2022/06/18 06:04:26;;;;;;;3.37;1.73;;;25.80;31.80;;;;;;4995924;28;20458;-45
2022/06/18 06:06:52;;;;;;;2.13;1.13;;;25.90;31.70;;;;;;4995979;28;20266;-44
2022/06/18 06:12:09;;;;;;;2.33;1.77;;;26.20;31.50;;;;;;4955658;28;20843;-45
2022/06/18 06:14:36;;;;;;;2.70;1.27;;;26.30;31.50;;;;;;4995921;28;20422;-44
2022/06/18 06:17:03;;;;;;;2.13;1.20;;;26.40;30.90;;;;;;4995345;28;20410;-45
2022/06/18 06:19:28;;;;;;;2.77;1.60;;;26.50;31.20;;;;;;4995514;28;20493;-44
2022/06/18 06:21:54;;;;;;;2.10;1.50;;;26.60;31.20;;;;;;4995480;28;20419;-45
2022/06/18 06:24:20;;;;;;;3.73;1.80;;;26.70;30.50;;;;;;4995385;28;20203;-45
2022/06/18 06:26:46;;;;;;;3.60;1.43;;;26.90;30.70;;;;;;4995150;28;20167;-44
2022/06/18 06:29:12;;;;;;;1.83;1.33;;;27.10;30.90;;;;;;4995241;28;20223;-45
2022/06/18 06:31:38;;;;;;;1.93;1.30;;;27.20;30.80;;;;;;4995324;28;20892;-46
2022/06/18 06:34:04;;;;;;;2.50;1.70;;;27.40;30.60;;;;;;4995317;28;20411;-45
2022/06/18 06:36:29;;;;;;;4.20;1.30;;;27.60;30.40;;;;;;4995004;28;20179;-46
2022/06/18 06:38:55;;;;;;;2.00;1.20;;;27.70;30.10;;;;;;4995369;28;20441;-45
2022/06/18 06:41:27;;;;;;;3.43;1.70;;;27.70;29.70;;;;;;4995304;28;20678;-46
2022/06/18 06:43:52;;;;;;;2.00;1.40;;;27.90;29.90;;;;;;4995107;28;20252;-45
2022/06/18 06:46:19;;;;;;;2.80;1.37;;;28.00;29.40;;;;;;4995081;28;20500;-45
2022/06/18 06:48:45;;;;;;;2.40;1.67;;;28.00;28.50;;;;;;4994977;28;21004;-45
2022/06/18 06:51:23;;;;;;;2.70;1.73;;;28.10;28.70;;;;;;4995001;28;20884;-46
2022/06/18 06:53:50;;;;;;;3.00;1.60;;;28.20;28.70;;;;;;4995190;28;20402;-45
2022/06/18 06:59:04;;;;;;;2.47;1.73;;;28.40;29.00;;;;;;4995006;28;20465;-44
2022/06/18 07:01:29;;;;;;;2.40;1.70;;;28.60;28.90;;;;;;4994907;28;20414;-45
2022/06/18 07:03:55;;;;;;;2.20;1.40;;;28.80;28.90;;;;;;4994719;28;20453;-46
2022/06/18 07:06:21;;;;;;;2.03;1.07;;;28.90;29.10;;;;;;4994514;28;20175;-46
2022/06/18 07:08:48;;;;;;;4.27;1.40;;;29.10;29.30;;;;;;4994609;28;20426;-46
2022/06/18 07:11:14;;;;;;;3.13;1.20;;;29.30;28.50;;;;;;4994575;28;20438;-47
2022/06/18 07:13:40;;;;;;;2.33;1.10;;;29.40;29.00;;;;;;4994535;28;20406;-46
2022/06/18 07:16:09;;;;;;;2.00;1.30;;;29.60;28.60;;;;;;4994643;28;20415;-46
2022/06/18 07:18:36;;;;;;;5.20;1.70;;;29.70;28.40;;;;;;4994499;28;20837;-47
2022/06/18 07:21:05;;;;;;;2.03;1.33;;;29.80;27.40;;;;;;4994355;28;20505;-46
2022/06/18 07:23:31;;;;;;;1.73;1.10;;;30.00;27.70;;;;;;4994747;28;20398;-47
2022/06/18 07:25:57;;;;;;;1.70;1.20;;;30.00;26.50;;;;;;4993999;28;20450;-47
2022/06/18 07:28:24;;;;;;;1.60;0.90;;;30.10;24.30;;;;;;4994313;28;20965;-46
2022/06/18 07:30:50;;;;;;;1.67;0.73;;;30.20;25.10;;;;;;4994273;28;20417;-47
2022/06/18 07:33:22;;;;;;;3.13;1.20;;;30.40;23.40;;;;;;4994223;28;20894;-46
2022/06/18 07:35:49;;;;;;;2.03;1.20;;;30.50;24.00;;;;;;4993938;28;20416;-47
2022/06/18 07:38:15;;;;;;;2.00;1.20;;;30.60;22.70;;;;;;4994082;28;20953;-47
2022/06/18 07:40:49;;;;;;;2.00;0.97;;;30.70;23.30;;;;;;4993424;28;20916;-47
2022/06/18 07:43:37;;;;;;;2.50;1.30;;;30.90;23.20;;;;;;4993999;28;20417;-47
2022/06/18 07:46:05;;;;;;;2.63;1.10;;;31.10;24.80;;;;;;4993718;28;20913;-47
2022/06/18 07:48:32;;;;;;;2.43;1.30;;;31.20;21.20;;;;;;4993808;28;20425;-47
2022/06/18 07:50:58;;;;;;;3.73;1.27;;;31.30;23.20;;;;;;4993913;28;20422;-47
2022/06/18 07:53:25;;;;;;;2.57;1.23;;;31.40;22.60;;;;;;4993784;28;20393;-47
2022/06/18 07:55:54;;;;;;;2.13;0.80;;;31.50;22.70;;;;;;4993415;28;20398;-47
2022/06/18 07:58:20;;;;;;;3.23;1.47;;;31.70;22.00;;;;;;4993496;28;20444;-46
2022/06/18 08:00:47;;;;;;;2.17;1.10;;;31.70;22.00;;;;;;4993646;28;20976;-47
2022/06/18 08:03:15;;;;;;;1.70;1.10;;;31.80;22.30;;;;;;4993785;28;20834;-47
2022/06/18 08:05:43;;;;;;;1.80;1.10;;;32.00;23.10;;;;;;4975991;28;20461;-47
2022/06/18 08:08:08;;;;;;;1.90;1.27;;;32.10;22.80;;;;;;4993553;28;20422;-46
2022/06/18 08:10:37;;;;;;;1.73;1.10;;;32.20;22.80;;;;;;4993443;28;20464;-46
2022/06/18 08:13:04;;;;;;;4.90;1.20;;;32.30;21.90;;;;;;4993297;28;20215;-47
2022/06/18 08:15:30;;;;;;;4.63;1.33;;;32.40;21.30;;;;;;4993393;28;20434;-47
2022/06/18 08:17:56;;;;;;;4.93;2.27;;;32.40;20.80;;;;;;4993177;28;20444;-48
2022/06/18 08:20:23;;;;;;;5.60;1.70;;;32.50;20.40;;;;;;4993364;28;20488;-47
2022/06/18 08:22:55;;;;;;;2.10;1.10;;;32.60;21.00;;;;;;4993444;28;20415;-48
2022/06/18 08:25:22;;;;;;;2.13;0.93;;;32.70;21.50;;;;;;4993060;28;20457;-46
2022/06/18 08:27:49;;;;;;;1.80;0.97;;;32.90;21.30;;;;;;4992905;28;20426;-48
2022/06/18 08:30:16;;;;;;;2.57;1.30;;;33.00;21.80;;;;;;4993094;28;20440;-46
2022/06/18 08:32:43;;;;;;;2.17;1.10;;;33.10;21.40;;;;;;4993014;28;20405;-46
2022/06/18 08:35:09;;;;;;;2.53;1.20;;;33.20;21.00;;;;;;4993031;28;20433;-46
2022/06/18 08:37:36;;;;;;;2.80;1.17;;;33.30;20.80;;;;;;4992754;28;20423;-45
2022/06/18 08:40:34;;;;;;;1.93;1.07;;;33.40;21.00;;;;;;4992740;28;20421;-46
2022/06/18 08:43:28;;;;;;;1.97;1.27;;;33.50;20.60;;;;;;4992675;28;20418;-44
2022/06/18 08:46:11;;;;;;;2.03;0.90;;;33.50;20.30;;;;;;4978435;28;20466;-44
2022/06/18 08:49:12;;;;;;;2.10;1.20;;;33.60;20.50;;;;;;4992687;28;20434;-45
2022/06/18 08:52:11;;;;;;;3.27;1.60;;;33.70;21.20;;;;;;4938779;28;20991;-45
2022/06/18 08:54:57;;;;;;;3.57;1.10;;;33.80;21.10;;;;;;4992744;28;20446;-45
2022/06/18 08:57:23;;;;;;;2.80;1.30;;;33.90;19.90;;;;;;4992340;28;20441;-46
2022/06/18 08:59:58;;;;;;;2.27;1.20;;;33.90;19.80;;;;;;4992644;28;20529;-43
2022/06/18 09:02:47;;;;;;;1.70;0.93;;;34.00;21.00;;;;;;4992820;28;20167;-46
2022/06/18 09:05:56;;;;;;;3.17;0.97;;;34.10;20.00;;;;;;4992545;28;20962;-46
2022/06/18 09:08:25;;;;;;;1.87;1.20;;;34.10;20.30;;;;;;4979608;28;20442;-44
2022/06/18 09:11:26;;;;;;;2.90;1.50;;;34.20;20.00;;;;;;4992692;28;20409;-44
2022/06/18 09:14:07;;;;;;;1.63;0.93;;;34.20;20.00;;;;;;4953439;28;20413;-45
2022/06/18 09:16:43;;;;;;;1.80;0.80;;;34.30;20.50;;;;;;4992471;28;20394;-45
2022/06/18 09:19:16;;;;;;;1.83;1.10;;;34.40;20.40;;;;;;4992474;28;20430;-45
2022/06/18 09:21:57;;;;;;;2.17;0.97;;;34.50;19.70;;;;;;4992513;28;21151;-45
2022/06/18 09:24:37;;;;;;;1.90;0.93;;;34.60;20.00;;;;;;4992410;28;20461;-45
2022/06/18 09:27:24;;;;;;;3.33;1.50;;;34.60;19.80;;;;;;4992338;28;20494;-44
2022/06/18 09:30:00;;;;;;;3.73;1.40;;;34.70;20.00;;;;;;4992962;28;20794;-44
2022/06/18 09:32:44;;;;;;;1.60;0.80;;;34.80;19.70;;;;;;4992921;28;20437;-46
2022/06/18 09:35:29;;;;;;;1.50;0.80;;;34.80;19.60;;;;;;4992804;28;20454;-45
2022/06/18 09:38:07;;;;;;;3.47;1.30;;;34.90;19.10;;;;;;4992216;28;20427;-45
2022/06/18 09:40:47;;;;;;;1.90;1.27;;;35.10;20.00;;;;;;4992491;28;20547;-44
2022/06/18 09:43:15;;;;;;;2.17;0.93;;;35.10;19.80;;;;;;4992754;28;20405;-45
2022/06/18 09:45:54;;;;;;;3.43;1.23;;;35.20;19.80;;;;;;4992051;28;20464;-44
2022/06/18 09:48:20;;;;;;;1.80;1.00;;;35.30;19.30;;;;;;4992202;28;20436;-44
2022/06/18 09:53:26;;;;;;;2.10;1.20;;;35.20;18.90;;;;;;4980047;28;20230;-44
2022/06/18 09:55:57;;;;;;;1.53;0.90;;;35.30;18.30;;;;;;4993533;28;20398;-42
2022/06/18 09:58:55;;;;;;;2.60;1.30;;;35.30;18.40;;;;;;4993383;28;20850;-44
2022/06/18 10:01:33;;;;;;;2.00;1.20;;;35.40;18.50;;;;;;4943431;28;20951;-43
2022/06/18 10:06:57;;;;;;;3.27;1.03;;;35.50;18.60;;;;;;4997342;28;20390;-42
2022/06/18 10:09:47;;;;;;;2.20;0.80;;;35.60;17.50;;;;;;4996288;28;20891;-44
2022/06/18 10:12:22;;;;;;;3.30;1.50;;;35.60;18.70;;;;;;4997882;28;20459;-45
2022/06/18 10:14:57;;;;;;;2.00;1.00;;;35.70;19.00;;;;;;4997056;28;20414;-43
2022/06/18 10:17:57;;;;;;;2.60;1.50;;;35.80;19.00;;;;;;4996900;28;20395;-43
2022/06/18 10:20:48;;;;;;;3.03;1.57;;;35.90;18.50;;;;;;4996990;28;20391;-44
2022/06/18 10:23:45;;;;;;;2.33;1.57;;;36.00;18.70;;;;;;4995740;28;20461;-44
2022/06/18 10:26:54;;;;;;;2.17;1.20;;;36.10;18.90;;;;;;4995802;28;20406;-44
2022/06/18 10:29:50;;;;;;;2.00;1.10;;;36.10;18.70;;;;;;4986180;28;20426;-45
2022/06/18 10:32:28;;;;;;;2.13;1.10;;;36.30;17.60;;;;;;4984674;28;20546;-42
2022/06/18 10:35:16;;;;;;;2.60;1.37;;;36.30;19.30;;;;;;4995333;28;20418;-43
2022/06/18 10:38:06;;;;;;;2.20;1.00;;;36.40;18.80;;;;;;4994955;28;20875;-44
2022/06/18 10:40:32;;;;;;;2.20;0.87;;;36.40;18.20;;;;;;4995261;28;20404;-43
2022/06/18 10:43:23;;;;;;;1.87;1.17;;;36.50;17.90;;;;;;4995017;28;20449;-45
2022/06/18 10:45:53;;;;;;;1.97;1.10;;;36.60;18.40;;;;;;4994683;28;20562;-43
2022/06/18 10:48:25;;;;;;;2.77;1.33;;;36.60;17.90;;;;;;4994936;28;20763;-43
2022/06/18 10:50:54;;;;;;;4.87;1.37;;;36.70;18.20;;;;;;4994758;28;20421;-43
2022/06/18 10:53:24;;;;;;;2.80;1.50;;;36.80;18.10;;;;;;4995013;28;20546;-43
2022/06/18 10:56:06;;;;;;;2.87;1.33;;;36.80;17.40;;;;;;4993301;28;20554;-42
2022/06/18 10:58:32;;;;;;;2.10;1.00;;;36.90;18.00;;;;;;4994859;28;20414;-44
2022/06/18 11:00:59;;;;;;;3.60;1.97;;;36.90;18.30;;;;;;4994706;28;20774;-43
2022/06/18 11:03:29;;;;;;;2.00;0.97;;;37.00;19.10;;;;;;4994727;28;20786;-42
2022/06/18 11:05:55;;;;;;;1.90;1.10;;;37.20;19.20;;;;;;4994323;28;20446;-43
2022/06/18 11:08:33;;;;;;;3.57;1.23;;;37.30;18.10;;;;;;4994558;28;20422;-44
2022/06/18 11:11:06;;;;;;;2.37;1.37;;;37.30;17.70;;;;;;4993194;28;20782;-42
2022/06/18 11:13:36;;;;;;;2.23;1.30;;;37.40;18.50;;;;;;4994527;28;20762;-45
2022/06/18 11:16:27;;;;;;;2.27;1.43;;;37.50;18.10;;;;;;4993127;28;20403;-46
2022/06/18 11:19:02;;;;;;;2.30;1.47;;;37.60;18.40;;;;;;4994369;28;20410;-43
2022/06/18 11:21:43;;;;;;;2.27;1.47;;;37.60;18.50;;;;;;4994304;28;21099;-43
2022/06/18 11:24:12;;;;;;;2.03;1.10;;;37.70;18.80;;;;;;4994296;28;20437;-44
2022/06/18 11:26:50;;;;;;;3.13;1.77;;;37.80;18.40;;;;;;4994005;28;20465;-44
2022/06/18 11:29:42;;;;;;;1.80;1.13;;;37.80;17.30;;;;;;4994327;28;20405;-45
2022/06/18 11:32:15;;;;;;;2.33;1.03;;;37.90;18.50;;;;;;4994151;28;20481;-44
2022/06/18 11:34:49;;;;;;;2.10;1.17;;;37.90;18.50;;;;;;4994165;28;20497;-43
2022/06/18 11:37:24;;;;;;;6.07;1.50;;;38.10;18.80;;;;;;4993833;28;20402;-45
2022/06/18 11:40:19;;;;;;;2.20;1.40;;;38.10;18.40;;;;;;4994045;28;20505;-43
2022/06/18 11:42:49;;;;;;;3.70;1.47;;;38.20;17.60;;;;;;4993790;28;20431;-43
2022/06/18 11:45:38;;;;;;;2.33;1.40;;;38.20;17.20;;;;;;4993824;28;20857;-44
2022/06/18 11:48:08;;;;;;;4.50;1.80;;;38.20;17.20;;;;;;4994092;28;20398;-42
2022/06/18 11:50:42;;;;;;;3.10;1.53;;;38.20;17.10;;;;;;4993810;28;20474;-43
2022/06/18 11:53:21;;;;;;;2.10;1.30;;;38.30;18.10;;;;;;4993699;28;20422;-44
2022/06/18 11:55:53;;;;;;;6.13;1.47;;;38.40;18.40;;;;;;4993566;28;20478;-44
2022/06/18 11:58:34;;;;;;;3.60;1.40;;;38.40;17.40;;;;;;4993704;28;20410;-44
2022/06/18 12:01:28;;;;;;;2.43;1.43;;;38.50;18.40;;;;;;4993524;28;20712;-43
2022/06/18 12:04:19;;;;;;;3.00;1.90;;;38.50;17.70;;;;;;4993708;28;20411;-43
2022/06/18 12:06:57;;;;;;;3.10;1.63;;;38.60;17.60;;;;;;4993745;28;20390;-44
2022/06/18 12:09:26;;;;;;;5.13;1.70;;;38.60;17.60;;;;;;4993394;28;20472;-42
2022/06/18 12:12:07;;;;;;;3.10;1.47;;;38.60;17.80;;;;;;4993394;28;20988;-45
2022/06/18 12:14:56;;;;;;;3.50;1.73;;;38.70;17.40;;;;;;4993345;28;20903;-45
2022/06/18 12:17:39;;;;;;;4.17;1.40;;;38.70;17.10;;;;;;4993154;28;20465;-45
2022/06/18 12:20:24;;;;;;;2.90;1.43;;;38.60;17.10;;;;;;4993403;28;20414;-45
2022/06/18 12:23:00;;;;;;;2.20;1.40;;;38.60;17.70;;;;;;4992979;28;20433;-46
2022/06/18 12:25:31;;;;;;;2.63;1.63;;;38.80;17.00;;;;;;4993009;28;20453;-46
2022/06/18 12:28:09;;;;;;;6.43;1.83;;;38.80;17.20;;;;;;4992832;28;20530;-45
2022/06/18 12:30:44;;;;;;;3.40;1.53;;;39.00;17.80;;;;;;4993101;28;20441;-46
2022/06/18 12:33:37;;;;;;;3.00;1.70;;;39.00;17.70;;;;;;4993044;28;20402;-45
2022/06/18 12:36:29;;;;;;;3.40;1.33;;;39.10;16.70;;;;;;4992594;28;20403;-45
2022/06/18 12:39:33;;;;;;;3.10;2.10;;;39.20;17.00;;;;;;4993125;28;20397;-45
2022/06/18 12:42:30;;;;;;;4.40;2.00;;;39.20;16.30;;;;;;4913216;29;20532;-46
2022/06/18 12:45:07;;;;;;;1.80;1.30;;;39.20;16.50;;;;;;4913624;29;20935;-45
2022/06/18 12:47:51;;;;;;;3.60;1.77;;;39.20;16.70;;;;;;4913629;29;20398;-45
2022/06/18 12:50:20;;;;;;;3.50;2.60;;;39.10;16.20;;;;;;4913683;29;20802;-45
2022/06/18 12:53:21;;;;;;;2.27;1.33;;;39.20;16.20;;;;;;4913611;29;20446;-45
2022/06/18 12:56:01;;;;;;;36.40;26.00;;;39.20;15.30;;;;;;4913564;29;20497;-44
2022/06/18 12:58:47;;;;;;;11.00;5.63;;;39.10;16.80;;;;;;4913459;29;20442;-45
2022/06/18 13:01:24;;;;;;;3.93;1.90;;;39.10;17.00;;;;;;4913622;29;20436;-45
2022/06/18 13:04:23;;;;;;;2.70;1.43;;;39.20;16.80;;;;;;4913524;29;20831;-46
2022/06/18 13:07:03;;;;;;;2.23;1.47;;;39.30;17.30;;;;;;4913196;29;20410;-45
2022/06/18 13:09:55;;;;;;;3.43;1.80;;;39.40;17.20;;;;;;4913404;29;20872;-45
2022/06/18 13:12:41;;;;;;;2.27;1.53;;;39.50;17.60;;;;;;4913398;29;21141;-45
2022/06/18 13:15:13;;;;;;;3.50;2.83;;;39.60;17.40;;;;;;4913302;29;20832;-46
2022/06/18 13:17:47;;;;;;;2.37;1.40;;;39.70;16.60;;;;;;4957966;28;20480;-50
2022/06/18 13:20:26;;;;;;;6.50;2.53;;;39.70;16.60;;;;;;4992716;28;20410;-48
2022/06/18 13:22:51;;;;;;;5.83;4.57;;;39.70;16.60;;;;;;4992445;28;20425;-50
2022/06/18 13:28:26;;;;;;;3.60;2.43;;;39.60;15.40;;;;;;4992782;28;20182;-48
2022/06/18 13:31:16;;;;;;;6.87;4.43;;;39.60;16.10;;;;;;4992280;28;20415;-48
2022/06/18 13:33:51;;;;;;;9.43;8.50;;;39.60;16.10;;;;;;4992328;28;20420;-49
2022/06/18 13:36:27;;;;;;;20.50;16.57;;;39.70;16.70;;;;;;4992352;28;20406;-49
2022/06/18 13:39:16;;;;;;;5.20;3.60;;;39.80;16.70;;;;;;4992631;28;20894;-46